Time;durP1;ratioP1;P1;durP2;ratioP2;P2;SDS_P1;SDS_P2;PMS_P1;PMS_P2;Temp;Humidity;BMP_temperature;BMP_pressure;BME280_temperature;BME280_humidity;BME280_pressure;Samples;Min_cycle;Max_cycle;Signal;HPM_P1;HPM_P2
2022/05/06 00:01:36;;;;;;;5.63;3.80;;;18.30;73.00;;;;;;5092430;28;20074;-69
2022/05/06 00:04:03;;;;;;;6.57;3.92;;;18.20;73.00;;;;;;5091896;28;20024;-70
2022/05/06 00:06:30;;;;;;;4.38;3.90;;;18.20;73.60;;;;;;5092264;28;20039;-69
2022/05/06 00:08:56;;;;;;;9.77;4.43;;;18.20;73.80;;;;;;5092405;28;20077;-69
2022/05/06 00:11:23;;;;;;;7.57;4.28;;;18.20;73.90;;;;;;5091721;28;20039;-69
2022/05/06 00:13:52;;;;;;;8.07;4.07;;;18.20;73.90;;;;;;5092372;28;20046;-68
2022/05/06 00:16:24;;;;;;;7.30;3.92;;;18.10;73.60;;;;;;5091697;28;20040;-69
2022/05/06 00:18:50;;;;;;;5.13;3.75;;;18.10;73.90;;;;;;5092584;28;20024;-69
2022/05/06 00:21:16;;;;;;;4.88;4.00;;;18.10;73.60;;;;;;5091628;28;20081;-70
2022/05/06 00:23:42;;;;;;;5.22;3.97;;;18.10;73.80;;;;;;5091975;28;20020;-68
2022/05/06 00:26:09;;;;;;;7.72;4.05;;;18.10;73.70;;;;;;5091226;28;20055;-69
2022/05/06 00:28:35;;;;;;;5.45;4.47;;;18.10;74.00;;;;;;5092258;28;20032;-69
2022/05/06 00:31:02;;;;;;;4.43;3.92;;;18.00;74.00;;;;;;5078374;28;20345;-69
2022/05/06 00:33:29;;;;;;;8.77;4.35;;;18.00;74.20;;;;;;5071346;28;20028;-70
2022/05/06 00:35:56;;;;;;;6.53;4.68;;;18.00;74.10;;;;;;5072222;28;20062;-70
2022/05/06 00:38:22;;;;;;;8.55;4.28;;;18.00;74.50;;;;;;5070978;28;20024;-68
2022/05/06 00:40:49;;;;;;;9.13;4.25;;;18.00;74.40;;;;;;5071513;28;20028;-70
2022/05/06 00:43:14;;;;;;;8.30;4.45;;;18.00;74.70;;;;;;5070539;28;20025;-70
2022/05/06 00:45:49;;;;;;;7.28;4.35;;;17.90;75.00;;;;;;5071632;28;20377;-70
2022/05/06 00:48:16;;;;;;;6.95;4.57;;;17.90;74.60;;;;;;5071124;28;20528;-69
2022/05/06 00:50:43;;;;;;;8.40;4.60;;;17.90;75.20;;;;;;5072073;28;20025;-69
2022/05/06 00:53:09;;;;;;;5.05;4.28;;;17.90;75.50;;;;;;5071090;28;20123;-70
2022/05/06 00:55:56;;;;;;;7.07;4.38;;;17.90;75.10;;;;;;5071719;28;20116;-70
2022/05/06 00:58:23;;;;;;;8.32;4.80;;;17.90;75.30;;;;;;5070970;28;20027;-69
2022/05/06 01:00:49;;;;;;;16.40;5.55;;;17.90;75.30;;;;;;5071179;28;20486;-69
2022/05/06 01:03:15;;;;;;;7.10;4.78;;;17.80;75.30;;;;;;5070956;28;20132;-69
2022/05/06 01:05:41;;;;;;;6.60;4.50;;;17.80;75.60;;;;;;5071543;28;20048;-69
2022/05/06 01:08:08;;;;;;;7.88;4.63;;;17.80;75.60;;;;;;5070981;28;20040;-70
2022/05/06 01:10:36;;;;;;;8.05;4.47;;;17.80;75.70;;;;;;5071433;28;20373;-69
2022/05/06 01:13:02;;;;;;;6.18;4.70;;;17.80;75.70;;;;;;5071523;28;20024;-69
2022/05/06 01:15:29;;;;;;;4.53;4.13;;;17.80;75.80;;;;;;5070442;28;20056;-70
2022/05/06 01:17:57;;;;;;;9.18;4.80;;;17.70;75.70;;;;;;5071385;28;20033;-69
2022/05/06 01:20:24;;;;;;;7.18;4.57;;;17.70;76.00;;;;;;5070821;28;20350;-69
2022/05/06 01:22:56;;;;;;;8.15;4.97;;;17.70;76.10;;;;;;5071364;28;20497;-68
2022/05/06 01:25:22;;;;;;;5.13;4.47;;;17.70;76.60;;;;;;5071131;28;20060;-68
2022/05/06 01:28:05;;;;;;;6.05;4.70;;;17.70;76.80;;;;;;5071324;28;20063;-69
2022/05/06 01:30:36;;;;;;;6.60;4.90;;;17.70;77.00;;;;;;5070480;28;20032;-69
2022/05/06 01:33:06;;;;;;;9.98;5.13;;;17.70;77.10;;;;;;5071438;28;20025;-69
2022/05/06 01:35:38;;;;;;;6.25;5.22;;;17.70;77.20;;;;;;5070696;28;20111;-70
2022/05/06 01:38:05;;;;;;;5.35;4.85;;;17.70;77.30;;;;;;5071559;28;20090;-69
2022/05/06 01:40:35;;;;;;;12.93;4.80;;;17.60;77.60;;;;;;5070614;28;20077;-69
2022/05/06 01:43:02;;;;;;;6.75;5.45;;;17.60;77.90;;;;;;5071081;28;20128;-69
2022/05/06 01:45:32;;;;;;;7.85;5.40;;;17.60;78.10;;;;;;5070467;28;20477;-69
2022/05/06 01:48:00;;;;;;;7.13;5.45;;;17.60;78.10;;;;;;5089019;28;20032;-69
2022/05/06 01:50:27;;;;;;;6.88;5.50;;;17.60;78.30;;;;;;5091046;28;20050;-69
2022/05/06 01:52:55;;;;;;;8.32;5.18;;;17.60;78.20;;;;;;5091248;28;20051;-70
2022/05/06 01:55:22;;;;;;;6.50;5.03;;;17.60;78.50;;;;;;5092903;28;20017;-70
2022/05/06 01:57:48;;;;;;;5.60;5.10;;;17.60;78.30;;;;;;5094812;28;20071;-69
2022/05/06 02:00:14;;;;;;;8.25;5.28;;;17.60;78.20;;;;;;5094445;28;20064;-70
2022/05/06 02:02:40;;;;;;;6.78;5.10;;;17.50;78.50;;;;;;5094436;28;20029;-69
2022/05/06 02:05:19;;;;;;;8.25;5.28;;;17.50;78.60;;;;;;5094743;28;20036;-70
2022/05/06 02:07:48;;;;;;;5.32;4.90;;;17.50;79.10;;;;;;5094638;28;20028;-70
2022/05/06 02:10:14;;;;;;;7.55;5.53;;;17.50;79.30;;;;;;5093859;28;20465;-70
2022/05/06 02:12:40;;;;;;;12.68;5.07;;;17.40;79.30;;;;;;5094680;28;20026;-69
2022/05/06 02:15:06;;;;;;;8.25;5.82;;;17.40;79.30;;;;;;5094485;28;20465;-70
2022/05/06 02:17:32;;;;;;;7.68;5.28;;;17.40;79.60;;;;;;5093564;28;20030;-69
2022/05/06 02:19:57;;;;;;;7.90;5.38;;;17.40;79.90;;;;;;5094176;28;20034;-69
2022/05/06 02:22:27;;;;;;;9.98;5.70;;;17.30;80.10;;;;;;5093713;28;20021;-69
2022/05/06 02:24:55;;;;;;;8.30;5.82;;;17.30;80.40;;;;;;5094348;28;20028;-69
2022/05/06 02:27:21;;;;;;;6.43;5.50;;;17.30;80.70;;;;;;5093475;28;20081;-69
2022/05/06 02:35:15;;;;;;;6.68;5.97;;;17.30;81.30;;;;;;5073127;28;20032;-70
2022/05/06 02:37:41;;;;;;;8.48;5.70;;;17.20;81.10;;;;;;5073885;28;20029;-70
2022/05/06 02:40:09;;;;;;;7.30;6.60;;;17.20;81.10;;;;;;5072545;28;20512;-69
2022/05/06 02:42:34;;;;;;;8.63;6.07;;;17.20;81.90;;;;;;5072991;28;20496;-69
2022/05/06 02:45:00;;;;;;;7.25;6.28;;;17.20;82.00;;;;;;5073936;28;20024;-70
2022/05/06 02:47:26;;;;;;;7.38;5.95;;;17.20;82.70;;;;;;5072893;28;20116;-69
2022/05/06 02:49:52;;;;;;;9.13;5.88;;;17.10;82.80;;;;;;5073541;28;20055;-69
2022/05/06 02:52:19;;;;;;;9.13;6.38;;;17.10;82.90;;;;;;5082827;28;20392;-69
2022/05/06 02:54:45;;;;;;;8.10;6.72;;;17.10;83.00;;;;;;5093441;28;20028;-69
2022/05/06 02:57:11;;;;;;;9.32;7.13;;;17.10;83.60;;;;;;5093242;28;20056;-70
2022/05/06 02:59:37;;;;;;;8.80;7.15;;;17.00;84.00;;;;;;5092485;28;20454;-70
2022/05/06 03:02:03;;;;;;;7.85;6.78;;;17.00;84.70;;;;;;5093264;28;20026;-69
2022/05/06 03:04:29;;;;;;;7.85;7.00;;;17.00;84.70;;;;;;5092711;28;20024;-70
2022/05/06 03:06:55;;;;;;;7.57;6.88;;;17.00;85.10;;;;;;5091311;28;20147;-70
2022/05/06 03:09:20;;;;;;;7.85;6.85;;;17.00;85.90;;;;;;5089611;28;20086;-69
2022/05/06 03:11:46;;;;;;;11.35;7.72;;;17.00;86.50;;;;;;5093477;28;20020;-70
2022/05/06 03:14:12;;;;;;;7.95;7.25;;;16.90;87.40;;;;;;5092450;28;20071;-68
2022/05/06 03:16:37;;;;;;;11.30;7.10;;;16.90;87.90;;;;;;5112860;27;20420;-68
2022/05/06 03:19:03;;;;;;;9.77;7.20;;;16.90;88.30;;;;;;5097928;28;20020;-68
2022/05/06 03:21:29;;;;;;;8.07;7.15;;;16.90;88.70;;;;;;5092900;28;20115;-69
2022/05/06 03:23:55;;;;;;;9.50;7.18;;;16.90;89.50;;;;;;5093330;28;20415;-69
2022/05/06 03:26:21;;;;;;;8.02;7.20;;;16.80;89.90;;;;;;5092637;28;20085;-70
2022/05/06 03:28:46;;;;;;;7.82;7.18;;;16.90;90.20;;;;;;5093424;28;20058;-69
2022/05/06 03:31:13;;;;;;;8.52;7.50;;;16.80;90.30;;;;;;5091650;28;20371;-70
2022/05/06 03:33:41;;;;;;;9.70;7.63;;;16.80;90.40;;;;;;5092138;28;20024;-69
2022/05/06 03:36:09;;;;;;;8.07;7.28;;;16.80;90.60;;;;;;5092951;28;20119;-70
2022/05/06 03:38:35;;;;;;;9.10;7.68;;;16.80;90.50;;;;;;5091711;28;20026;-70
2022/05/06 03:41:01;;;;;;;9.30;8.40;;;16.80;90.50;;;;;;5092856;28;20107;-70
2022/05/06 03:43:27;;;;;;;8.63;7.22;;;16.70;90.60;;;;;;5108000;28;20052;-70
2022/05/06 03:45:53;;;;;;;9.45;7.78;;;16.70;91.00;;;;;;5092593;28;20055;-70
2022/05/06 03:48:24;;;;;;;11.73;7.93;;;16.70;91.10;;;;;;5091672;28;20507;-71
2022/05/06 03:53:38;;;;;;;9.88;7.45;;;16.70;91.20;;;;;;5091915;28;20310;-70
2022/05/06 03:56:04;;;;;;;9.15;8.02;;;16.70;91.50;;;;;;5092191;28;20024;-70
2022/05/06 03:58:30;;;;;;;10.15;8.40;;;16.70;91.60;;;;;;5090005;28;20024;-70
2022/05/06 04:00:56;;;;;;;11.65;8.05;;;16.70;91.30;;;;;;5092432;28;20086;-69
2022/05/06 04:03:22;;;;;;;11.32;8.25;;;16.70;91.50;;;;;;5091946;28;20028;-70
2022/05/06 04:05:48;;;;;;;13.32;8.60;;;16.70;91.70;;;;;;5092371;28;20079;-70
2022/05/06 04:08:13;;;;;;;9.88;8.05;;;16.70;91.70;;;;;;5092200;28;20032;-69
2022/05/06 04:10:39;;;;;;;9.15;8.25;;;16.70;91.80;;;;;;5091504;28;20075;-70
2022/05/06 04:13:05;;;;;;;9.02;7.78;;;16.70;92.00;;;;;;5092074;28;20055;-69
2022/05/06 04:15:34;;;;;;;8.60;7.60;;;16.70;92.00;;;;;;5091535;28;20176;-67
2022/05/06 04:18:02;;;;;;;8.73;7.93;;;16.70;91.80;;;;;;5091614;28;20024;-70
2022/05/06 04:23:30;;;;;;;12.18;7.63;;;16.70;92.40;;;;;;5091085;28;20030;-69
2022/05/06 04:26:01;;;;;;;9.25;7.93;;;16.80;92.30;;;;;;5091990;28;20028;-70
2022/05/06 04:28:46;;;;;;;9.63;7.55;;;16.80;92.00;;;;;;5091313;28;20119;-70
2022/05/06 04:31:11;;;;;;;12.50;7.90;;;16.80;91.60;;;;;;5091499;28;20463;-69
2022/05/06 04:33:41;;;;;;;12.30;7.68;;;16.80;91.50;;;;;;5091136;28;20036;-70
2022/05/06 04:36:07;;;;;;;11.77;7.78;;;16.90;91.60;;;;;;5090781;28;20024;-70
2022/05/06 04:38:33;;;;;;;12.45;7.60;;;16.80;91.40;;;;;;5088566;28;20100;-71
2022/05/06 04:41:00;;;;;;;12.05;8.02;;;16.80;91.70;;;;;;5091730;28;20028;-69
2022/05/06 04:43:26;;;;;;;10.38;7.20;;;16.90;91.80;;;;;;5091196;28;20028;-71
2022/05/06 04:45:53;;;;;;;12.80;7.80;;;16.80;91.70;;;;;;5091424;28;20031;-70
2022/05/06 04:48:19;;;;;;;8.25;7.47;;;16.80;91.90;;;;;;5091664;28;20028;-70
2022/05/06 04:50:46;;;;;;;8.70;7.90;;;16.80;92.00;;;;;;5091274;28;20186;-71
2022/05/06 04:53:12;;;;;;;8.95;8.05;;;16.90;91.90;;;;;;5091821;28;20111;-70
2022/05/06 04:55:43;;;;;;;8.35;7.47;;;16.80;92.00;;;;;;5090961;28;20097;-70
2022/05/06 04:58:09;;;;;;;9.35;8.18;;;16.90;92.20;;;;;;5092135;28;20024;-70
2022/05/06 05:00:35;;;;;;;9.18;7.25;;;16.80;92.00;;;;;;5091018;28;20039;-70
2022/05/06 05:03:02;;;;;;;10.27;7.50;;;16.90;91.90;;;;;;5091584;28;20349;-71
2022/05/06 05:05:28;;;;;;;8.95;8.05;;;16.80;92.00;;;;;;5090707;28;20063;-71
2022/05/06 05:07:54;;;;;;;8.80;7.57;;;16.80;92.00;;;;;;5091432;28;20081;-69
2022/05/06 05:10:20;;;;;;;8.65;7.85;;;16.80;92.00;;;;;;5091521;28;20024;-71
2022/05/06 05:12:47;;;;;;;8.45;7.35;;;16.80;91.70;;;;;;5089899;28;20024;-72
2022/05/06 05:15:15;;;;;;;8.98;7.18;;;16.80;92.00;;;;;;5091089;28;20082;-73
2022/05/06 05:17:45;;;;;;;9.85;7.78;;;16.80;92.20;;;;;;5090615;28;20040;-73
2022/05/06 05:20:12;;;;;;;9.75;6.78;;;16.90;92.20;;;;;;5091130;28;20035;-72
2022/05/06 05:22:38;;;;;;;10.63;7.25;;;16.90;91.90;;;;;;5089961;28;20020;-73
2022/05/06 05:25:05;;;;;;;8.20;7.40;;;16.90;91.80;;;;;;5091278;28;20038;-74
2022/05/06 05:27:32;;;;;;;11.60;8.90;;;16.90;91.40;;;;;;5090630;28;20379;-74
2022/05/06 05:29:59;;;;;;;13.75;8.60;;;16.90;91.60;;;;;;5094454;28;20032;-73
2022/05/06 05:32:25;;;;;;;8.60;7.45;;;16.90;91.80;;;;;;5095309;28;20107;-73
2022/05/06 05:34:51;;;;;;;8.27;7.43;;;16.90;91.30;;;;;;5095279;28;20019;-73
2022/05/06 05:37:17;;;;;;;14.00;8.30;;;16.90;91.50;;;;;;5110651;28;20089;-73
2022/05/06 05:39:43;;;;;;;12.55;8.13;;;16.90;91.60;;;;;;5094059;28;20541;-73
2022/05/06 05:42:09;;;;;;;12.95;8.63;;;16.80;91.70;;;;;;5094973;28;20031;-73
2022/05/06 05:50:05;;;;;;;10.38;7.70;;;16.90;92.00;;;;;;5094929;28;20031;-73
2022/05/06 05:52:31;;;;;;;12.60;8.50;;;17.00;92.00;;;;;;5094207;28;20024;-74
2022/05/06 05:54:56;;;;;;;9.80;7.32;;;17.00;91.50;;;;;;5094531;28;20366;-73
2022/05/06 05:57:22;;;;;;;10.18;7.47;;;17.00;91.50;;;;;;5093424;28;20031;-73
2022/05/06 05:59:47;;;;;;;12.77;8.35;;;17.00;91.30;;;;;;5094111;28;20028;-73
2022/05/06 06:02:15;;;;;;;11.35;7.75;;;17.10;91.20;;;;;;5093608;28;20031;-74
2022/05/06 06:04:42;;;;;;;11.75;7.45;;;17.10;91.20;;;;;;5094285;28;20162;-73
2022/05/06 06:07:07;;;;;;;8.50;7.63;;;17.10;91.20;;;;;;5094376;28;20072;-73
2022/05/06 06:09:33;;;;;;;7.50;6.80;;;17.20;91.20;;;;;;5109613;28;20454;-74
2022/05/06 06:11:59;;;;;;;11.95;6.70;;;17.20;91.10;;;;;;5094688;28;20105;-73
2022/05/06 06:14:24;;;;;;;9.57;7.60;;;17.30;90.90;;;;;;5094035;28;20358;-73
2022/05/06 06:16:50;;;;;;;10.10;7.30;;;17.30;90.90;;;;;;5109525;28;20036;-74
2022/05/06 06:19:17;;;;;;;11.35;7.47;;;17.30;90.70;;;;;;5094360;28;20024;-74
2022/05/06 06:21:43;;;;;;;11.13;7.82;;;17.40;90.50;;;;;;5093777;28;20024;-74
2022/05/06 06:24:09;;;;;;;10.70;7.55;;;17.40;90.10;;;;;;5094352;28;20035;-73
2022/05/06 06:26:35;;;;;;;8.93;7.72;;;17.40;90.10;;;;;;5093535;28;20036;-73
2022/05/06 06:29:02;;;;;;;11.35;7.90;;;17.40;89.60;;;;;;5094202;28;20074;-73
2022/05/06 06:31:30;;;;;;;9.20;7.25;;;17.40;89.40;;;;;;5094274;28;20063;-73
2022/05/06 06:33:57;;;;;;;11.45;7.82;;;17.40;89.50;;;;;;5094270;28;20107;-74
2022/05/06 06:36:23;;;;;;;9.43;7.18;;;17.40;88.90;;;;;;5090035;28;20485;-72
2022/05/06 06:38:49;;;;;;;12.48;7.88;;;17.40;88.80;;;;;;5073065;28;20020;-73
2022/05/06 06:41:15;;;;;;;8.98;7.30;;;17.40;87.90;;;;;;5072849;28;20028;-73
2022/05/06 06:43:40;;;;;;;10.82;7.55;;;17.50;88.40;;;;;;5073193;28;20073;-73
2022/05/06 06:46:06;;;;;;;9.65;8.00;;;17.50;88.30;;;;;;5073292;28;20039;-73
2022/05/06 06:48:32;;;;;;;15.48;8.73;;;17.50;88.10;;;;;;5072590;28;20036;-73
2022/05/06 06:50:58;;;;;;;13.00;8.48;;;17.50;88.40;;;;;;5073367;28;20105;-73
2022/05/06 06:53:24;;;;;;;11.57;8.40;;;17.50;88.70;;;;;;5073319;28;20024;-73
2022/05/06 06:55:50;;;;;;;12.05;8.10;;;17.60;88.20;;;;;;5072538;28;20107;-74
2022/05/06 06:58:16;;;;;;;14.05;8.60;;;17.60;88.60;;;;;;5073441;28;20111;-73
2022/05/06 07:00:44;;;;;;;12.90;9.05;;;17.60;88.10;;;;;;5072584;28;20055;-73
2022/05/06 07:03:11;;;;;;;10.65;8.25;;;17.70;89.00;;;;;;5072970;28;20103;-73
2022/05/06 07:05:37;;;;;;;11.65;8.90;;;17.60;88.60;;;;;;5072542;28;20058;-73
2022/05/06 07:13:32;;;;;;;14.05;8.98;;;17.70;88.70;;;;;;5072697;28;20035;-73
2022/05/06 07:15:58;;;;;;;16.13;8.73;;;17.80;88.70;;;;;;5073097;28;20049;-73
2022/05/06 07:18:24;;;;;;;10.27;8.50;;;17.80;88.30;;;;;;5072716;28;20090;-73
2022/05/06 07:20:49;;;;;;;8.68;7.65;;;17.90;88.30;;;;;;5072282;28;20035;-72
2022/05/06 07:23:15;;;;;;;12.27;8.60;;;17.90;87.70;;;;;;5072563;28;20032;-74
2022/05/06 07:25:41;;;;;;;16.23;8.77;;;18.00;87.50;;;;;;5072101;28;20445;-73
2022/05/06 07:28:08;;;;;;;13.20;8.82;;;18.10;86.50;;;;;;5072730;28;20114;-73
2022/05/06 07:30:34;;;;;;;14.38;8.43;;;18.10;86.40;;;;;;5072401;28;20032;-73
2022/05/06 07:32:59;;;;;;;14.52;9.30;;;18.10;86.70;;;;;;5072173;28;20024;-73
2022/05/06 07:35:25;;;;;;;14.65;8.13;;;18.20;85.80;;;;;;5072169;28;20039;-73
2022/05/06 07:37:51;;;;;;;11.68;8.68;;;18.20;86.10;;;;;;5071783;28;20064;-72
2022/05/06 07:40:17;;;;;;;13.95;9.30;;;18.30;86.50;;;;;;5070987;28;20028;-73
2022/05/06 07:42:43;;;;;;;14.68;8.25;;;18.40;85.80;;;;;;5071714;28;20362;-73
2022/05/06 07:45:12;;;;;;;9.65;8.65;;;18.40;85.00;;;;;;5072183;28;20084;-73
2022/05/06 07:47:38;;;;;;;11.23;8.15;;;18.50;83.90;;;;;;5081898;28;20097;-73
2022/05/06 07:50:05;;;;;;;13.38;8.20;;;18.40;83.90;;;;;;5092733;28;20028;-74
2022/05/06 07:52:31;;;;;;;11.95;8.18;;;18.50;84.20;;;;;;5092206;28;20107;-73
2022/05/06 07:54:57;;;;;;;12.45;8.27;;;18.50;83.60;;;;;;5091871;28;20057;-73
2022/05/06 07:57:22;;;;;;;15.10;8.43;;;18.60;83.70;;;;;;5091436;28;20525;-73
2022/05/06 07:59:48;;;;;;;8.07;7.20;;;18.60;82.00;;;;;;5091983;28;20046;-73
2022/05/06 08:05:12;;;;;;;9.98;7.93;;;18.90;80.00;;;;;;5079791;28;20039;-73
2022/05/06 08:07:38;;;;;;;10.13;7.55;;;19.00;79.80;;;;;;5090228;28;20489;-72
2022/05/06 08:10:06;;;;;;;10.57;7.90;;;18.90;78.40;;;;;;5092304;28;20028;-73
2022/05/06 08:12:32;;;;;;;10.73;7.72;;;18.90;78.00;;;;;;5092199;28;20024;-73
2022/05/06 08:14:58;;;;;;;8.95;7.50;;;19.00;78.30;;;;;;5091505;28;20051;-73
2022/05/06 08:17:24;;;;;;;9.80;7.47;;;18.90;77.90;;;;;;5092207;28;20028;-73
2022/05/06 08:19:49;;;;;;;8.07;7.10;;;19.00;78.30;;;;;;5090195;28;20032;-73
2022/05/06 08:22:15;;;;;;;10.05;7.38;;;18.90;77.50;;;;;;5092485;28;20024;-74
2022/05/06 08:24:41;;;;;;;10.93;7.55;;;18.90;77.50;;;;;;5091636;28;20028;-72
2022/05/06 08:27:07;;;;;;;11.48;7.60;;;18.90;77.80;;;;;;5092128;28;20046;-72
2022/05/06 08:29:35;;;;;;;8.57;7.05;;;18.90;77.70;;;;;;5092242;28;20389;-73
2022/05/06 08:32:00;;;;;;;12.63;7.75;;;18.90;78.20;;;;;;5091256;28;20090;-72
2022/05/06 08:34:26;;;;;;;11.18;7.10;;;18.90;76.60;;;;;;5092199;28;20056;-72
2022/05/06 08:36:52;;;;;;;10.35;7.38;;;19.00;77.00;;;;;;5090929;28;20311;-73
2022/05/06 08:39:17;;;;;;;10.60;7.30;;;18.90;77.20;;;;;;5091867;28;20055;-73
2022/05/06 08:41:43;;;;;;;10.60;8.10;;;19.10;78.30;;;;;;5091298;28;20028;-72
2022/05/06 08:52:43;;;;;;;10.57;7.85;;;19.40;75.60;;;;;;5047833;28;20037;-73
2022/05/06 08:55:09;;;;;;;11.02;7.97;;;19.50;75.60;;;;;;5071955;28;20064;-72
2022/05/06 08:57:36;;;;;;;11.20;6.75;;;19.60;76.40;;;;;;5071484;28;20063;-73
2022/05/06 09:00:05;;;;;;;9.60;7.78;;;19.60;76.30;;;;;;5071001;28;20024;-72
2022/05/06 09:02:31;;;;;;;17.63;8.50;;;19.60;75.20;;;;;;5071463;28;20029;-73
2022/05/06 09:04:58;;;;;;;9.70;7.85;;;19.60;74.90;;;;;;5074370;28;20031;-72
2022/05/06 09:07:25;;;;;;;11.73;8.07;;;19.50;75.80;;;;;;5075547;28;20036;-71
2022/05/06 09:10:09;;;;;;;8.77;7.25;;;19.50;76.00;;;;;;5074678;28;20454;-73
2022/05/06 09:12:40;;;;;;;8.57;7.43;;;19.50;75.80;;;;;;5075442;28;20059;-72
2022/05/06 09:17:51;;;;;;;9.00;7.82;;;19.60;76.30;;;;;;5074923;28;20031;-73
2022/05/06 09:20:20;;;;;;;17.65;8.38;;;19.60;75.80;;;;;;5075646;28;20029;-72
2022/05/06 09:22:48;;;;;;;13.45;7.97;;;19.70;75.20;;;;;;5074678;28;20354;-73
2022/05/06 09:25:42;;;;;;;11.00;8.05;;;19.70;75.40;;;;;;5075378;28;20035;-73
2022/05/06 09:28:22;;;;;;;11.45;8.30;;;19.80;76.10;;;;;;5074965;28;20036;-73
2022/05/06 09:31:02;;;;;;;10.63;8.95;;;19.80;75.40;;;;;;5074497;28;20021;-73
2022/05/06 09:33:29;;;;;;;10.60;8.43;;;19.80;74.40;;;;;;5075199;28;20055;-73
2022/05/06 09:35:56;;;;;;;10.82;8.15;;;19.80;75.30;;;;;;5074204;28;20025;-72
2022/05/06 09:38:24;;;;;;;10.27;8.15;;;19.80;75.90;;;;;;5074699;28;20028;-73
2022/05/06 09:40:51;;;;;;;13.30;8.38;;;20.00;75.00;;;;;;5074137;28;20035;-72
2022/05/06 09:43:18;;;;;;;17.23;9.10;;;20.00;74.20;;;;;;5074725;28;20028;-73
2022/05/06 09:45:44;;;;;;;14.23;9.02;;;20.00;74.00;;;;;;5073825;28;20048;-73
2022/05/06 09:48:11;;;;;;;12.82;8.45;;;20.00;75.00;;;;;;5074785;28;20122;-74
2022/05/06 09:50:45;;;;;;;14.55;8.73;;;20.10;75.00;;;;;;5076891;28;20056;-73
2022/05/06 09:53:15;;;;;;;13.45;8.73;;;20.20;73.80;;;;;;5094983;28;20028;-72
2022/05/06 09:55:45;;;;;;;10.13;8.18;;;20.20;72.20;;;;;;5094783;28;20027;-73
2022/05/06 09:58:12;;;;;;;10.88;7.50;;;20.30;72.20;;;;;;5094808;28;20035;-72
2022/05/06 10:00:38;;;;;;;12.13;7.95;;;20.30;70.40;;;;;;5094720;28;20043;-73
2022/05/06 10:03:05;;;;;;;16.10;8.63;;;20.30;70.20;;;;;;5094159;28;20475;-73
2022/05/06 10:05:36;;;;;;;9.73;8.60;;;20.50;70.70;;;;;;5094572;28;20024;-73
2022/05/06 10:08:14;;;;;;;;;;;20.60;69.50;;;;;;5094180;28;20040;-73
2022/05/06 10:10:45;;;;;;;13.88;8.13;;;20.70;68.10;;;;;;5094432;28;20356;-73
2022/05/06 10:13:13;;;;;;;;;;;20.80;67.90;;;;;;5094977;28;20077;-73
2022/05/06 10:15:39;;;;;;;23.58;8.63;;;20.70;68.00;;;;;;5092771;28;19924;-72
2022/05/06 10:18:07;;;;;;;11.05;8.30;;;20.80;67.80;;;;;;5093571;28;20473;-73
2022/05/06 10:20:36;;;;;;;51.03;14.70;;;20.70;69.30;;;;;;5094295;28;20086;-73
2022/05/06 10:23:11;;;;;;;46.38;12.23;;;20.80;70.60;;;;;;5093663;28;20028;-72
2022/05/06 10:25:40;;;;;;;10.00;7.97;;;20.80;69.80;;;;;;5094027;28;20477;-72
2022/05/06 10:34:23;;;;;;;11.65;6.88;;;20.80;68.00;;;;;;5084564;28;20075;-72
2022/05/06 10:36:53;;;;;;;10.88;7.70;;;20.90;69.20;;;;;;5093406;28;20031;-72
2022/05/06 10:39:22;;;;;;;12.75;8.10;;;20.80;67.80;;;;;;5093897;28;20488;-72
2022/05/06 10:42:14;;;;;;;14.88;8.02;;;20.80;67.50;;;;;;5093864;28;20028;-72
2022/05/06 10:44:44;;;;;;;12.98;7.95;;;20.80;66.80;;;;;;5093589;28;20115;-73
2022/05/06 10:47:13;;;;;;;8.68;7.78;;;20.70;64.10;;;;;;5092919;28;20032;-74
2022/05/06 10:49:38;;;;;;;13.35;8.25;;;20.60;65.40;;;;;;5093918;28;20028;-73
2022/05/06 10:52:20;;;;;;;10.98;8.27;;;20.60;66.10;;;;;;5082243;28;20028;-72
2022/05/06 10:54:53;;;;;;;13.70;8.23;;;20.50;66.50;;;;;;5073336;28;20033;-73
2022/05/06 10:57:23;;;;;;;9.70;8.05;;;20.50;67.20;;;;;;5073385;28;20357;-72
2022/05/06 10:59:55;;;;;;;13.30;7.80;;;20.30;66.80;;;;;;5073472;28;20056;-73
2022/05/06 11:02:32;;;;;;;12.48;8.55;;;20.40;67.30;;;;;;5073203;28;20318;-72
2022/05/06 11:05:20;;;;;;;9.45;8.18;;;20.40;67.40;;;;;;5072606;28;20028;-72
2022/05/06 11:07:48;;;;;;;10.13;7.95;;;20.40;67.10;;;;;;5073464;28;20116;-73
2022/05/06 11:10:16;;;;;;;11.05;8.35;;;20.40;67.40;;;;;;5072620;28;20111;-73
2022/05/06 11:12:42;;;;;;;9.80;7.57;;;20.40;66.70;;;;;;5073112;28;20025;-73
2022/05/06 11:15:11;;;;;;;9.13;8.15;;;20.40;67.20;;;;;;5072192;28;20474;-72
2022/05/06 11:17:37;;;;;;;10.50;8.40;;;20.50;67.20;;;;;;5073032;28;20111;-72
2022/05/06 11:20:21;;;;;;;10.68;9.32;;;20.50;66.70;;;;;;5072598;28;20154;-73
2022/05/06 11:22:57;;;;;;;10.18;8.23;;;20.50;66.10;;;;;;5072863;28;20029;-73
2022/05/06 11:25:24;;;;;;;14.45;8.23;;;20.50;67.00;;;;;;5072916;28;20058;-74
2022/05/06 11:27:52;;;;;;;14.20;7.40;;;20.50;67.50;;;;;;5072024;28;20075;-73
2022/05/06 11:30:19;;;;;;;9.52;8.38;;;20.50;67.50;;;;;;5072839;28;20028;-73
2022/05/06 11:32:50;;;;;;;11.50;7.35;;;20.40;67.10;;;;;;5072536;28;20365;-73
2022/05/06 11:35:39;;;;;;;12.25;8.57;;;20.40;67.70;;;;;;5072119;28;20029;-72
2022/05/06 11:38:05;;;;;;;10.55;7.70;;;20.30;68.00;;;;;;5071384;28;20413;-73
2022/05/06 11:40:35;;;;;;;14.98;9.50;;;20.30;68.00;;;;;;5072182;28;20021;-73
2022/05/06 11:43:21;;;;;;;10.17;8.20;;;20.20;68.30;;;;;;5072053;28;20016;-73
2022/05/06 11:48:42;;;;;;;11.35;9.15;;;20.20;70.40;;;;;;5072172;28;20093;-73
2022/05/06 11:51:10;;;;;;;11.82;10.18;;;20.10;72.80;;;;;;5071657;28;20036;-73
2022/05/06 11:53:37;;;;;;;12.35;10.15;;;20.10;72.90;;;;;;5072283;28;20467;-73
2022/05/06 11:56:03;;;;;;;15.90;9.77;;;20.10;73.40;;;;;;5077198;28;20020;-73
2022/05/06 11:58:29;;;;;;;11.02;9.85;;;20.00;74.50;;;;;;5092247;28;20223;-73
2022/05/06 12:00:55;;;;;;;12.15;10.35;;;20.00;76.40;;;;;;5091871;28;20501;-72
2022/05/06 12:03:22;;;;;;;9.95;8.95;;;20.00;77.10;;;;;;5092431;28;20032;-73
2022/05/06 12:06:03;;;;;;;11.30;10.23;;;20.00;77.40;;;;;;5092463;28;20107;-73
2022/05/06 12:08:30;;;;;;;;;;;19.90;75.60;;;;;;5092504;28;20032;-72
2022/05/06 12:11:04;;;;;;;14.02;9.52;;;19.90;76.60;;;;;;5091527;28;19907;-72
2022/05/06 12:13:32;;;;;;;10.75;9.65;;;19.80;76.00;;;;;;5092283;28;20035;-73
2022/05/06 12:16:08;;;;;;;12.85;10.00;;;19.80;78.10;;;;;;5091737;28;20055;-73
2022/05/06 12:18:34;;;;;;;11.07;9.98;;;19.70;78.40;;;;;;5092281;28;20103;-73
2022/05/06 12:21:01;;;;;;;12.43;10.20;;;19.70;78.70;;;;;;5091365;28;20457;-73
2022/05/06 12:23:28;;;;;;;13.23;10.82;;;19.70;79.40;;;;;;5092031;28;20050;-73
2022/05/06 12:25:55;;;;;;;12.05;10.82;;;19.70;79.80;;;;;;5107819;28;20434;-73
2022/05/06 12:28:21;;;;;;;14.85;12.07;;;19.70;81.30;;;;;;5092020;28;20039;-73
2022/05/06 12:30:59;;;;;;;13.45;12.05;;;19.60;80.70;;;;;;5092097;28;20162;-73
2022/05/06 12:33:45;;;;;;;12.48;11.27;;;19.50;82.40;;;;;;5092241;28;20051;-74
2022/05/06 12:36:18;;;;;;;12.98;11.48;;;19.50;85.90;;;;;;5091484;28;20081;-73
2022/05/06 12:38:44;;;;;;;15.35;11.52;;;19.60;85.40;;;;;;5091533;28;20158;-72
2022/05/06 12:41:22;;;;;;;17.17;11.85;;;19.50;86.30;;;;;;5091345;28;20169;-72
2022/05/06 12:43:51;;;;;;;14.43;12.57;;;19.50;86.30;;;;;;5091897;28;20024;-73
2022/05/06 12:46:36;;;;;;;13.70;12.43;;;19.40;88.00;;;;;;5106929;28;20318;-72
2022/05/06 12:51:46;;;;;;;14.70;12.45;;;19.30;89.90;;;;;;5091634;28;20039;-73
2022/05/06 12:54:13;;;;;;;13.57;12.20;;;19.20;90.20;;;;;;5091285;28;20035;-73
2022/05/06 12:56:40;;;;;;;14.23;12.82;;;19.20;90.40;;;;;;5091522;28;20361;-73
2022/05/06 12:59:07;;;;;;;15.00;13.43;;;19.30;90.70;;;;;;5087692;28;20450;-73
2022/05/06 13:01:33;;;;;;;16.17;13.82;;;19.30;90.90;;;;;;5071639;28;20066;-72
2022/05/06 13:03:59;;;;;;;15.10;13.60;;;19.20;90.80;;;;;;5070914;28;20049;-73
2022/05/06 13:06:25;;;;;;;17.17;13.57;;;19.30;91.40;;;;;;5071509;28;20484;-73
2022/05/06 13:08:51;;;;;;;14.88;13.32;;;19.30;91.40;;;;;;5071515;28;20033;-73
2022/05/06 13:11:17;;;;;;;14.43;13.07;;;19.20;91.30;;;;;;5070590;28;20029;-73
2022/05/06 13:13:42;;;;;;;20.58;13.57;;;19.30;90.90;;;;;;5071441;28;20028;-72
2022/05/06 13:16:09;;;;;;;14.23;12.75;;;19.20;91.70;;;;;;5070357;28;20068;-72
2022/05/06 13:18:35;;;;;;;15.98;14.35;;;19.20;91.80;;;;;;5071097;28;20461;-72
2022/05/06 13:21:00;;;;;;;14.85;12.90;;;19.20;91.60;;;;;;5070959;28;20055;-74
2022/05/06 13:23:26;;;;;;;14.98;12.88;;;19.20;91.90;;;;;;5071590;28;20028;-73
2022/05/06 13:25:52;;;;;;;14.80;13.35;;;19.20;92.00;;;;;;5071740;28;20484;-73
2022/05/06 13:28:18;;;;;;;14.13;12.75;;;19.20;91.20;;;;;;5070651;28;20435;-73
2022/05/06 13:30:43;;;;;;;16.30;14.60;;;19.20;91.10;;;;;;5071689;28;20024;-73
2022/05/06 13:33:09;;;;;;;15.77;14.18;;;19.20;90.90;;;;;;5070561;28;20471;-73